sensor_id;sensor_type;location;lat;lon;timestamp;temperature;humidity
12841;DHT22;6487;48.626;12.486;2023-01-08T00:01:23;3.50;99.90
12841;DHT22;6487;48.626;12.486;2023-01-08T00:03:51;3.50;99.90
12841;DHT22;6487;48.626;12.486;2023-01-08T00:06:20;3.50;99.90
12841;DHT22;6487;48.626;12.486;2023-01-08T00:08:48;3.50;99.90
12841;DHT22;6487;48.626;12.486;2023-01-08T00:11:17;3.50;99.90
12841;DHT22;6487;48.626;12.486;2023-01-08T00:13:46;3.50;99.90
12841;DHT22;6487;48.626;12.486;2023-01-08T00:16:17;3.50;99.90
12841;DHT22;6487;48.626;12.486;2023-01-08T00:18:46;3.40;99.90
12841;DHT22;6487;48.626;12.486;2023-01-08T00:21:14;3.40;99.90
12841;DHT22;6487;48.626;12.486;2023-01-08T00:23:43;3.30;99.90
12841;DHT22;6487;48.626;12.486;2023-01-08T00:26:11;3.40;99.90
12841;DHT22;6487;48.626;12.486;2023-01-08T00:28:41;3.30;99.90
12841;DHT22;6487;48.626;12.486;2023-01-08T00:31:11;3.30;99.90
12841;DHT22;6487;48.626;12.486;2023-01-08T00:33:40;3.30;99.90
12841;DHT22;6487;48.626;12.486;2023-01-08T00:36:10;3.30;99.90
12841;DHT22;6487;48.626;12.486;2023-01-08T00:38:40;3.30;99.90
12841;DHT22;6487;48.626;12.486;2023-01-08T00:41:08;3.20;99.90
12841;DHT22;6487;48.626;12.486;2023-01-08T00:43:37;3.10;99.90
12841;DHT22;6487;48.626;12.486;2023-01-08T00:46:06;3.10;99.90
12841;DHT22;6487;48.626;12.486;2023-01-08T00:48:36;3.10;99.90
12841;DHT22;6487;48.626;12.486;2023-01-08T00:51:06;3.10;99.90
12841;DHT22;6487;48.626;12.486;2023-01-08T00:53:35;3.10;99.90
12841;DHT22;6487;48.626;12.486;2023-01-08T00:56:06;3.10;99.90
12841;DHT22;6487;48.626;12.486;2023-01-08T00:58:37;3.10;99.90
12841;DHT22;6487;48.626;12.486;2023-01-08T01:01:09;3.00;99.90
12841;DHT22;6487;48.626;12.486;2023-01-08T01:03:40;2.90;99.90
12841;DHT22;6487;48.626;12.486;2023-01-08T01:06:10;2.90;99.90
12841;DHT22;6487;48.626;12.486;2023-01-08T01:08:39;2.90;99.90
12841;DHT22;6487;48.626;12.486;2023-01-08T01:11:17;2.90;99.90
12841;DHT22;6487;48.626;12.486;2023-01-08T01:13:47;2.90;99.90
12841;DHT22;6487;48.626;12.486;2023-01-08T01:16:16;2.80;99.90
12841;DHT22;6487;48.626;12.486;2023-01-08T01:18:46;2.80;99.90
12841;DHT22;6487;48.626;12.486;2023-01-08T01:21:20;2.80;99.90
12841;DHT22;6487;48.626;12.486;2023-01-08T01:23:52;2.80;99.90
12841;DHT22;6487;48.626;12.486;2023-01-08T01:26:22;2.80;99.90
12841;DHT22;6487;48.626;12.486;2023-01-08T01:28:53;2.80;99.90
12841;DHT22;6487;48.626;12.486;2023-01-08T01:31:23;2.80;99.90
12841;DHT22;6487;48.626;12.486;2023-01-08T01:33:53;2.70;99.90
12841;DHT22;6487;48.626;12.486;2023-01-08T01:36:23;2.70;99.90
12841;DHT22;6487;48.626;12.486;2023-01-08T01:38:53;2.60;99.90
12841;DHT22;6487;48.626;12.486;2023-01-08T01:41:27;2.50;99.90
12841;DHT22;6487;48.626;12.486;2023-01-08T01:43:59;2.50;99.90
12841;DHT22;6487;48.626;12.486;2023-01-08T01:46:51;2.40;99.90
12841;DHT22;6487;48.626;12.486;2023-01-08T01:49:22;2.40;99.90
12841;DHT22;6487;48.626;12.486;2023-01-08T01:51:53;2.30;99.90
12841;DHT22;6487;48.626;12.486;2023-01-08T01:54:23;2.40;99.90
12841;DHT22;6487;48.626;12.486;2023-01-08T01:56:51;2.40;99.90
12841;DHT22;6487;48.626;12.486;2023-01-08T01:59:20;2.40;99.90
12841;DHT22;6487;48.626;12.486;2023-01-08T02:01:48;2.40;99.90
12841;DHT22;6487;48.626;12.486;2023-01-08T02:04:17;2.40;99.90
12841;DHT22;6487;48.626;12.486;2023-01-08T02:06:54;2.50;99.90
12841;DHT22;6487;48.626;12.486;2023-01-08T02:09:36;2.40;99.90
12841;DHT22;6487;48.626;12.486;2023-01-08T02:12:10;2.20;99.90
12841;DHT22;6487;48.626;12.486;2023-01-08T02:14:58;2.10;99.90
12841;DHT22;6487;48.626;12.486;2023-01-08T02:17:36;1.90;99.90
12841;DHT22;6487;48.626;12.486;2023-01-08T02:20:10;2.00;99.90
12841;DHT22;6487;48.626;12.486;2023-01-08T02:22:57;2.00;99.90
12841;DHT22;6487;48.626;12.486;2023-01-08T02:25:39;2.00;99.90
12841;DHT22;6487;48.626;12.486;2023-01-08T02:28:34;1.90;99.90
12841;DHT22;6487;48.626;12.486;2023-01-08T02:31:05;1.90;99.90
12841;DHT22;6487;48.626;12.486;2023-01-08T02:33:34;1.90;99.90
12841;DHT22;6487;48.626;12.486;2023-01-08T02:36:29;1.80;99.90
12841;DHT22;6487;48.626;12.486;2023-01-08T02:39:22;1.80;99.90
12841;DHT22;6487;48.626;12.486;2023-01-08T02:42:10;1.70;99.90
12841;DHT22;6487;48.626;12.486;2023-01-08T02:44:56;1.70;99.90
12841;DHT22;6487;48.626;12.486;2023-01-08T02:47:30;1.80;99.90
12841;DHT22;6487;48.626;12.486;2023-01-08T02:50:08;1.60;99.90
12841;DHT22;6487;48.626;12.486;2023-01-08T02:52:52;1.60;99.90
12841;DHT22;6487;48.626;12.486;2023-01-08T02:55:24;1.70;99.90
12841;DHT22;6487;48.626;12.486;2023-01-08T02:57:53;1.70;99.90
12841;DHT22;6487;48.626;12.486;2023-01-08T03:00:23;1.50;99.90
12841;DHT22;6487;48.626;12.486;2023-01-08T03:03:00;1.70;99.90
12841;DHT22;6487;48.626;12.486;2023-01-08T03:05:33;1.70;99.90
12841;DHT22;6487;48.626;12.486;2023-01-08T03:08:02;1.70;99.90
12841;DHT22;6487;48.626;12.486;2023-01-08T03:10:31;1.70;99.90
12841;DHT22;6487;48.626;12.486;2023-01-08T03:13:03;1.70;99.90
12841;DHT22;6487;48.626;12.486;2023-01-08T03:15:38;1.70;99.90
12841;DHT22;6487;48.626;12.486;2023-01-08T03:18:12;1.90;99.90
12841;DHT22;6487;48.626;12.486;2023-01-08T03:20:43;1.70;99.90
12841;DHT22;6487;48.626;12.486;2023-01-08T03:23:14;1.50;99.90
12841;DHT22;6487;48.626;12.486;2023-01-08T03:25:45;1.50;99.90
12841;DHT22;6487;48.626;12.486;2023-01-08T03:28:18;1.60;99.90
12841;DHT22;6487;48.626;12.486;2023-01-08T03:30:53;1.60;99.90
12841;DHT22;6487;48.626;12.486;2023-01-08T03:33:23;1.30;99.90
12841;DHT22;6487;48.626;12.486;2023-01-08T03:35:53;1.30;99.90
12841;DHT22;6487;48.626;12.486;2023-01-08T03:38:25;1.40;99.90
12841;DHT22;6487;48.626;12.486;2023-01-08T03:40:58;1.40;99.90
12841;DHT22;6487;48.626;12.486;2023-01-08T03:43:29;1.30;99.90
12841;DHT22;6487;48.626;12.486;2023-01-08T03:46:02;1.20;99.90
12841;DHT22;6487;48.626;12.486;2023-01-08T03:48:36;1.30;99.90
12841;DHT22;6487;48.626;12.486;2023-01-08T03:51:07;1.30;99.90
12841;DHT22;6487;48.626;12.486;2023-01-08T03:53:36;1.30;99.90
12841;DHT22;6487;48.626;12.486;2023-01-08T03:56:05;1.30;99.90
12841;DHT22;6487;48.626;12.486;2023-01-08T03:58:33;1.10;99.90
12841;DHT22;6487;48.626;12.486;2023-01-08T04:01:03;1.10;99.90
12841;DHT22;6487;48.626;12.486;2023-01-08T04:03:32;1.20;99.90
12841;DHT22;6487;48.626;12.486;2023-01-08T04:06:00;1.20;99.90
12841;DHT22;6487;48.626;12.486;2023-01-08T04:08:29;1.20;99.90
12841;DHT22;6487;48.626;12.486;2023-01-08T04:10:57;1.20;99.90
12841;DHT22;6487;48.626;12.486;2023-01-08T04:13:25;1.20;99.90
12841;DHT22;6487;48.626;12.486;2023-01-08T04:15:54;1.10;99.90
12841;DHT22;6487;48.626;12.486;2023-01-08T04:18:25;1.10;99.90
12841;DHT22;6487;48.626;12.486;2023-01-08T04:20:53;1.20;99.90
12841;DHT22;6487;48.626;12.486;2023-01-08T04:23:22;1.20;99.90
12841;DHT22;6487;48.626;12.486;2023-01-08T04:25:50;1.10;99.90
12841;DHT22;6487;48.626;12.486;2023-01-08T04:28:19;1.00;99.90
12841;DHT22;6487;48.626;12.486;2023-01-08T04:30:47;1.00;99.90
12841;DHT22;6487;48.626;12.486;2023-01-08T04:33:16;0.80;99.90
12841;DHT22;6487;48.626;12.486;2023-01-08T04:35:46;0.70;99.90
12841;DHT22;6487;48.626;12.486;2023-01-08T04:38:14;0.80;99.90
12841;DHT22;6487;48.626;12.486;2023-01-08T04:40:42;0.90;99.90
12841;DHT22;6487;48.626;12.486;2023-01-08T04:43:10;0.90;99.90
12841;DHT22;6487;48.626;12.486;2023-01-08T04:45:39;1.00;99.90
12841;DHT22;6487;48.626;12.486;2023-01-08T04:48:07;1.00;99.90
12841;DHT22;6487;48.626;12.486;2023-01-08T04:50:35;1.00;99.90
12841;DHT22;6487;48.626;12.486;2023-01-08T04:53:05;1.10;99.90
12841;DHT22;6487;48.626;12.486;2023-01-08T04:55:33;1.10;99.90
12841;DHT22;6487;48.626;12.486;2023-01-08T04:58:03;1.10;99.90
12841;DHT22;6487;48.626;12.486;2023-01-08T05:00:31;1.10;99.90
12841;DHT22;6487;48.626;12.486;2023-01-08T05:03:00;1.10;99.90
12841;DHT22;6487;48.626;12.486;2023-01-08T05:05:28;1.10;99.90
12841;DHT22;6487;48.626;12.486;2023-01-08T05:07:56;1.00;99.90
12841;DHT22;6487;48.626;12.486;2023-01-08T05:10:26;1.00;99.90
12841;DHT22;6487;48.626;12.486;2023-01-08T05:12:57;1.00;99.90
12841;DHT22;6487;48.626;12.486;2023-01-08T05:15:26;1.00;99.90
12841;DHT22;6487;48.626;12.486;2023-01-08T05:17:58;1.00;99.90
12841;DHT22;6487;48.626;12.486;2023-01-08T05:20:27;1.10;99.90
12841;DHT22;6487;48.626;12.486;2023-01-08T05:22:55;1.10;99.90
12841;DHT22;6487;48.626;12.486;2023-01-08T05:25:25;0.90;99.90
12841;DHT22;6487;48.626;12.486;2023-01-08T05:27:54;0.90;99.90
12841;DHT22;6487;48.626;12.486;2023-01-08T05:30:22;1.00;99.90
12841;DHT22;6487;48.626;12.486;2023-01-08T05:32:50;1.00;99.90
12841;DHT22;6487;48.626;12.486;2023-01-08T05:35:18;1.10;99.90
12841;DHT22;6487;48.626;12.486;2023-01-08T05:37:47;1.00;99.90
12841;DHT22;6487;48.626;12.486;2023-01-08T05:40:15;1.00;99.90
12841;DHT22;6487;48.626;12.486;2023-01-08T05:42:45;0.90;99.90
12841;DHT22;6487;48.626;12.486;2023-01-08T05:45:13;0.70;99.90
12841;DHT22;6487;48.626;12.486;2023-01-08T05:47:42;0.70;99.90
12841;DHT22;6487;48.626;12.486;2023-01-08T05:50:10;0.80;99.90
12841;DHT22;6487;48.626;12.486;2023-01-08T05:52:39;0.70;99.90
12841;DHT22;6487;48.626;12.486;2023-01-08T05:55:08;0.80;99.90
12841;DHT22;6487;48.626;12.486;2023-01-08T05:57:36;0.80;99.90
12841;DHT22;6487;48.626;12.486;2023-01-08T06:00:08;0.80;99.90
12841;DHT22;6487;48.626;12.486;2023-01-08T06:02:37;0.80;99.90
12841;DHT22;6487;48.626;12.486;2023-01-08T06:05:06;0.90;99.90
12841;DHT22;6487;48.626;12.486;2023-01-08T06:07:34;1.00;99.90
12841;DHT22;6487;48.626;12.486;2023-01-08T06:10:03;1.00;99.90
12841;DHT22;6487;48.626;12.486;2023-01-08T06:12:32;1.00;99.90
12841;DHT22;6487;48.626;12.486;2023-01-08T06:15:00;1.00;99.90
12841;DHT22;6487;48.626;12.486;2023-01-08T06:17:30;0.90;99.90
12841;DHT22;6487;48.626;12.486;2023-01-08T06:19:58;0.80;99.90
12841;DHT22;6487;48.626;12.486;2023-01-08T06:22:26;0.90;99.90
12841;DHT22;6487;48.626;12.486;2023-01-08T06:24:55;0.90;99.90
12841;DHT22;6487;48.626;12.486;2023-01-08T06:27:23;0.90;99.90
12841;DHT22;6487;48.626;12.486;2023-01-08T06:29:51;0.80;99.90
12841;DHT22;6487;48.626;12.486;2023-01-08T06:32:20;0.80;99.90
12841;DHT22;6487;48.626;12.486;2023-01-08T06:34:49;0.80;99.90
12841;DHT22;6487;48.626;12.486;2023-01-08T06:37:17;0.70;99.90
12841;DHT22;6487;48.626;12.486;2023-01-08T06:39:46;0.70;99.90
12841;DHT22;6487;48.626;12.486;2023-01-08T06:42:14;0.70;99.90
12841;DHT22;6487;48.626;12.486;2023-01-08T06:44:42;0.70;99.90
12841;DHT22;6487;48.626;12.486;2023-01-08T06:47:10;0.70;99.90
12841;DHT22;6487;48.626;12.486;2023-01-08T06:49:39;0.80;99.90
12841;DHT22;6487;48.626;12.486;2023-01-08T06:52:09;0.80;99.90
12841;DHT22;6487;48.626;12.486;2023-01-08T06:54:37;0.70;99.90
12841;DHT22;6487;48.626;12.486;2023-01-08T06:57:06;0.60;99.90
12841;DHT22;6487;48.626;12.486;2023-01-08T06:59:34;0.50;99.90
12841;DHT22;6487;48.626;12.486;2023-01-08T07:02:02;0.40;99.90
12841;DHT22;6487;48.626;12.486;2023-01-08T07:04:30;0.40;99.90
12841;DHT22;6487;48.626;12.486;2023-01-08T07:06:59;0.50;99.90
12841;DHT22;6487;48.626;12.486;2023-01-08T07:09:28;0.50;99.90
12841;DHT22;6487;48.626;12.486;2023-01-08T07:11:56;0.50;99.90
12841;DHT22;6487;48.626;12.486;2023-01-08T07:14:25;0.60;99.90
12841;DHT22;6487;48.626;12.486;2023-01-08T07:16:53;0.70;99.90
12841;DHT22;6487;48.626;12.486;2023-01-08T07:19:21;0.70;99.90
12841;DHT22;6487;48.626;12.486;2023-01-08T07:21:49;0.80;99.90
12841;DHT22;6487;48.626;12.486;2023-01-08T07:24:18;0.70;99.90
12841;DHT22;6487;48.626;12.486;2023-01-08T07:26:47;0.60;99.90
12841;DHT22;6487;48.626;12.486;2023-01-08T07:29:15;0.70;99.90
12841;DHT22;6487;48.626;12.486;2023-01-08T07:31:44;0.70;99.90
12841;DHT22;6487;48.626;12.486;2023-01-08T07:34:12;0.80;99.90
12841;DHT22;6487;48.626;12.486;2023-01-08T07:36:41;0.80;99.90
12841;DHT22;6487;48.626;12.486;2023-01-08T07:39:09;0.90;99.90
12841;DHT22;6487;48.626;12.486;2023-01-08T07:41:37;0.80;99.90
12841;DHT22;6487;48.626;12.486;2023-01-08T07:44:07;0.70;99.90
12841;DHT22;6487;48.626;12.486;2023-01-08T07:46:35;0.80;99.90
12841;DHT22;6487;48.626;12.486;2023-01-08T07:49:03;0.80;99.90
12841;DHT22;6487;48.626;12.486;2023-01-08T07:51:32;0.80;99.90
12841;DHT22;6487;48.626;12.486;2023-01-08T07:54:00;0.80;99.90
12841;DHT22;6487;48.626;12.486;2023-01-08T07:56:29;0.80;99.90
12841;DHT22;6487;48.626;12.486;2023-01-08T07:58:57;0.90;99.90
12841;DHT22;6487;48.626;12.486;2023-01-08T08:01:26;0.90;99.90
12841;DHT22;6487;48.626;12.486;2023-01-08T08:03:55;1.00;99.90
12841;DHT22;6487;48.626;12.486;2023-01-08T08:06:23;1.00;99.90
12841;DHT22;6487;48.626;12.486;2023-01-08T08:08:52;0.90;99.90
12841;DHT22;6487;48.626;12.486;2023-01-08T08:11:20;0.90;99.90
12841;DHT22;6487;48.626;12.486;2023-01-08T08:13:49;0.80;99.90
12841;DHT22;6487;48.626;12.486;2023-01-08T08:16:19;0.90;99.90
12841;DHT22;6487;48.626;12.486;2023-01-08T08:18:49;0.90;99.90
12841;DHT22;6487;48.626;12.486;2023-01-08T08:21:17;0.90;99.90
12841;DHT22;6487;48.626;12.486;2023-01-08T08:23:45;1.00;99.90
12841;DHT22;6487;48.626;12.486;2023-01-08T08:26:14;1.00;99.90
12841;DHT22;6487;48.626;12.486;2023-01-08T08:28:42;1.00;99.90
12841;DHT22;6487;48.626;12.486;2023-01-08T08:31:10;1.10;99.90
12841;DHT22;6487;48.626;12.486;2023-01-08T08:33:39;1.00;99.90
12841;DHT22;6487;48.626;12.486;2023-01-08T08:36:09;1.10;99.90
12841;DHT22;6487;48.626;12.486;2023-01-08T08:38:37;1.00;99.90
12841;DHT22;6487;48.626;12.486;2023-01-08T08:41:06;1.10;99.90
12841;DHT22;6487;48.626;12.486;2023-01-08T08:43:34;1.10;99.90
12841;DHT22;6487;48.626;12.486;2023-01-08T08:46:03;1.20;99.90
12841;DHT22;6487;48.626;12.486;2023-01-08T08:48:31;1.20;99.90
12841;DHT22;6487;48.626;12.486;2023-01-08T08:51:00;1.20;99.90
12841;DHT22;6487;48.626;12.486;2023-01-08T08:53:29;1.20;99.90
12841;DHT22;6487;48.626;12.486;2023-01-08T08:55:58;1.30;99.90
12841;DHT22;6487;48.626;12.486;2023-01-08T08:58:26;1.30;99.90
12841;DHT22;6487;48.626;12.486;2023-01-08T09:00:59;1.40;99.90
12841;DHT22;6487;48.626;12.486;2023-01-08T09:03:28;1.40;99.90
12841;DHT22;6487;48.626;12.486;2023-01-08T09:05:57;1.50;99.90
12841;DHT22;6487;48.626;12.486;2023-01-08T09:08:25;1.50;99.90
12841;DHT22;6487;48.626;12.486;2023-01-08T09:10:55;1.60;99.90
12841;DHT22;6487;48.626;12.486;2023-01-08T09:13:23;1.70;99.90
12841;DHT22;6487;48.626;12.486;2023-01-08T09:15:52;1.70;99.90
12841;DHT22;6487;48.626;12.486;2023-01-08T09:18:20;1.70;99.90
12841;DHT22;6487;48.626;12.486;2023-01-08T09:20:48;1.70;99.90
12841;DHT22;6487;48.626;12.486;2023-01-08T09:23:16;1.80;99.90
12841;DHT22;6487;48.626;12.486;2023-01-08T09:25:45;1.80;99.90
12841;DHT22;6487;48.626;12.486;2023-01-08T09:28:14;1.90;99.90
12841;DHT22;6487;48.626;12.486;2023-01-08T09:30:43;1.90;99.90
12841;DHT22;6487;48.626;12.486;2023-01-08T09:33:11;1.90;99.90
12841;DHT22;6487;48.626;12.486;2023-01-08T09:35:42;2.00;99.90
12841;DHT22;6487;48.626;12.486;2023-01-08T09:38:11;2.00;99.90
12841;DHT22;6487;48.626;12.486;2023-01-08T09:40:48;2.10;99.90
12841;DHT22;6487;48.626;12.486;2023-01-08T09:43:20;2.20;99.90
12841;DHT22;6487;48.626;12.486;2023-01-08T09:45:52;2.20;99.90
12841;DHT22;6487;48.626;12.486;2023-01-08T09:48:25;2.30;99.90
12841;DHT22;6487;48.626;12.486;2023-01-08T09:50:55;2.40;99.90
12841;DHT22;6487;48.626;12.486;2023-01-08T09:53:24;2.40;99.90
12841;DHT22;6487;48.626;12.486;2023-01-08T09:55:55;2.50;99.90
12841;DHT22;6487;48.626;12.486;2023-01-08T09:58:39;2.60;99.90
12841;DHT22;6487;48.626;12.486;2023-01-08T10:01:13;2.70;99.90
12841;DHT22;6487;48.626;12.486;2023-01-08T10:03:46;2.70;99.90
12841;DHT22;6487;48.626;12.486;2023-01-08T10:06:16;2.60;99.90
12841;DHT22;6487;48.626;12.486;2023-01-08T10:08:45;2.60;99.90
12841;DHT22;6487;48.626;12.486;2023-01-08T10:11:14;2.60;99.90
12841;DHT22;6487;48.626;12.486;2023-01-08T10:13:48;2.50;99.90
12841;DHT22;6487;48.626;12.486;2023-01-08T10:16:23;2.60;99.90
12841;DHT22;6487;48.626;12.486;2023-01-08T10:18:56;2.60;99.90
12841;DHT22;6487;48.626;12.486;2023-01-08T10:21:31;2.70;99.90
12841;DHT22;6487;48.626;12.486;2023-01-08T10:24:03;2.70;99.90
12841;DHT22;6487;48.626;12.486;2023-01-08T10:26:34;2.70;99.90
12841;DHT22;6487;48.626;12.486;2023-01-08T10:29:11;2.80;99.90
12841;DHT22;6487;48.626;12.486;2023-01-08T10:31:46;2.90;99.90
12841;DHT22;6487;48.626;12.486;2023-01-08T10:34:27;2.80;99.90
12841;DHT22;6487;48.626;12.486;2023-01-08T10:36:59;2.90;99.90
12841;DHT22;6487;48.626;12.486;2023-01-08T10:39:29;2.90;99.90
12841;DHT22;6487;48.626;12.486;2023-01-08T10:42:04;2.90;99.90
12841;DHT22;6487;48.626;12.486;2023-01-08T10:44:35;3.00;99.90
12841;DHT22;6487;48.626;12.486;2023-01-08T10:47:04;3.00;99.90
12841;DHT22;6487;48.626;12.486;2023-01-08T10:49:35;3.00;99.90
12841;DHT22;6487;48.626;12.486;2023-01-08T10:52:23;3.00;99.90
12841;DHT22;6487;48.626;12.486;2023-01-08T10:55:10;2.90;99.90
12841;DHT22;6487;48.626;12.486;2023-01-08T10:57:41;2.90;99.90
12841;DHT22;6487;48.626;12.486;2023-01-08T11:00:24;2.90;99.90
12841;DHT22;6487;48.626;12.486;2023-01-08T11:02:56;2.90;99.90
12841;DHT22;6487;48.626;12.486;2023-01-08T11:05:34;3.10;99.90
12841;DHT22;6487;48.626;12.486;2023-01-08T11:08:06;3.10;99.90
12841;DHT22;6487;48.626;12.486;2023-01-08T11:10:39;3.20;99.90
12841;DHT22;6487;48.626;12.486;2023-01-08T11:13:16;3.20;99.90
12841;DHT22;6487;48.626;12.486;2023-01-08T11:15:46;3.20;99.90
12841;DHT22;6487;48.626;12.486;2023-01-08T11:18:27;3.40;99.90
12841;DHT22;6487;48.626;12.486;2023-01-08T11:21:06;3.40;99.90
12841;DHT22;6487;48.626;12.486;2023-01-08T11:23:36;3.50;99.90
12841;DHT22;6487;48.626;12.486;2023-01-08T11:26:09;3.60;99.90
12841;DHT22;6487;48.626;12.486;2023-01-08T11:28:48;3.70;99.90
12841;DHT22;6487;48.626;12.486;2023-01-08T11:31:30;3.70;99.90
12841;DHT22;6487;48.626;12.486;2023-01-08T11:34:06;3.70;99.90
12841;DHT22;6487;48.626;12.486;2023-01-08T11:36:45;3.90;99.90
12841;DHT22;6487;48.626;12.486;2023-01-08T11:39:16;3.90;99.90
12841;DHT22;6487;48.626;12.486;2023-01-08T11:42:00;3.90;99.90
12841;DHT22;6487;48.626;12.486;2023-01-08T11:44:44;3.90;99.90
12841;DHT22;6487;48.626;12.486;2023-01-08T11:47:24;3.90;99.90
12841;DHT22;6487;48.626;12.486;2023-01-08T11:50:09;3.80;99.90
12841;DHT22;6487;48.626;12.486;2023-01-08T11:52:47;3.90;99.90
12841;DHT22;6487;48.626;12.486;2023-01-08T11:55:29;3.90;99.90
12841;DHT22;6487;48.626;12.486;2023-01-08T11:58:17;3.90;99.90
12841;DHT22;6487;48.626;12.486;2023-01-08T12:01:00;4.10;99.90
12841;DHT22;6487;48.626;12.486;2023-01-08T12:03:43;4.10;99.90
12841;DHT22;6487;48.626;12.486;2023-01-08T12:06:24;4.20;99.90
12841;DHT22;6487;48.626;12.486;2023-01-08T12:09:07;4.20;99.90
12841;DHT22;6487;48.626;12.486;2023-01-08T12:11:44;4.30;99.90
12841;DHT22;6487;48.626;12.486;2023-01-08T12:14:29;4.40;99.90
12841;DHT22;6487;48.626;12.486;2023-01-08T12:20:19;4.50;99.90
12841;DHT22;6487;48.626;12.486;2023-01-08T12:22:57;4.60;99.90
12841;DHT22;6487;48.626;12.486;2023-01-08T12:28:55;4.70;99.90
12841;DHT22;6487;48.626;12.486;2023-01-08T12:32:07;4.80;99.90
12841;DHT22;6487;48.626;12.486;2023-01-08T12:34:51;4.90;99.90
12841;DHT22;6487;48.626;12.486;2023-01-08T12:37:27;4.90;99.90
12841;DHT22;6487;48.626;12.486;2023-01-08T12:40:04;4.90;99.90
12841;DHT22;6487;48.626;12.486;2023-01-08T12:42:42;4.90;99.90
12841;DHT22;6487;48.626;12.486;2023-01-08T12:45:24;4.90;99.90
12841;DHT22;6487;48.626;12.486;2023-01-08T12:47:59;4.80;99.90
12841;DHT22;6487;48.626;12.486;2023-01-08T12:50:41;4.80;99.90
12841;DHT22;6487;48.626;12.486;2023-01-08T12:53:24;5.00;99.90
12841;DHT22;6487;48.626;12.486;2023-01-08T12:56:02;4.90;99.90
12841;DHT22;6487;48.626;12.486;2023-01-08T12:58:42;5.00;99.90
12841;DHT22;6487;48.626;12.486;2023-01-08T13:01:27;5.00;99.90
12841;DHT22;6487;48.626;12.486;2023-01-08T13:04:00;5.10;99.90
12841;DHT22;6487;48.626;12.486;2023-01-08T13:06:31;5.20;99.90
12841;DHT22;6487;48.626;12.486;2023-01-08T13:09:00;5.30;99.90
12841;DHT22;6487;48.626;12.486;2023-01-08T13:11:32;5.30;99.90
12841;DHT22;6487;48.626;12.486;2023-01-08T13:14:04;5.30;99.90
12841;DHT22;6487;48.626;12.486;2023-01-08T13:16:36;5.40;99.90
12841;DHT22;6487;48.626;12.486;2023-01-08T13:19:20;5.30;99.90
12841;DHT22;6487;48.626;12.486;2023-01-08T13:21:52;5.50;99.90
12841;DHT22;6487;48.626;12.486;2023-01-08T13:24:29;5.50;99.90
12841;DHT22;6487;48.626;12.486;2023-01-08T13:27:11;5.50;99.90
12841;DHT22;6487;48.626;12.486;2023-01-08T13:29:50;5.60;99.90
12841;DHT22;6487;48.626;12.486;2023-01-08T13:32:23;5.50;99.90
12841;DHT22;6487;48.626;12.486;2023-01-08T13:35:01;5.60;99.90
12841;DHT22;6487;48.626;12.486;2023-01-08T13:37:45;5.60;99.90
12841;DHT22;6487;48.626;12.486;2023-01-08T13:40:37;5.60;99.90
12841;DHT22;6487;48.626;12.486;2023-01-08T13:43:12;5.60;99.90
12841;DHT22;6487;48.626;12.486;2023-01-08T13:45:43;5.60;99.90
12841;DHT22;6487;48.626;12.486;2023-01-08T13:48:22;5.70;99.90
12841;DHT22;6487;48.626;12.486;2023-01-08T13:50:51;5.60;99.90
12841;DHT22;6487;48.626;12.486;2023-01-08T13:53:21;5.60;99.90
12841;DHT22;6487;48.626;12.486;2023-01-08T13:55:55;5.70;99.90
12841;DHT22;6487;48.626;12.486;2023-01-08T13:58:32;5.60;99.90
12841;DHT22;6487;48.626;12.486;2023-01-08T14:01:04;5.60;99.90
12841;DHT22;6487;48.626;12.486;2023-01-08T14:03:35;5.60;99.90
12841;DHT22;6487;48.626;12.486;2023-01-08T14:06:05;5.60;99.90
12841;DHT22;6487;48.626;12.486;2023-01-08T14:08:34;5.60;99.90
12841;DHT22;6487;48.626;12.486;2023-01-08T14:11:04;5.70;99.90
12841;DHT22;6487;48.626;12.486;2023-01-08T14:13:33;5.70;99.90
12841;DHT22;6487;48.626;12.486;2023-01-08T14:16:05;5.60;99.90
12841;DHT22;6487;48.626;12.486;2023-01-08T14:18:39;5.60;99.90
12841;DHT22;6487;48.626;12.486;2023-01-08T14:21:08;5.50;99.90
12841;DHT22;6487;48.626;12.486;2023-01-08T14:23:38;5.50;99.90
12841;DHT22;6487;48.626;12.486;2023-01-08T14:26:19;5.30;99.90
12841;DHT22;6487;48.626;12.486;2023-01-08T14:28:52;5.30;99.90
12841;DHT22;6487;48.626;12.486;2023-01-08T14:31:23;5.20;99.90
12841;DHT22;6487;48.626;12.486;2023-01-08T14:33:53;5.10;99.90
12841;DHT22;6487;48.626;12.486;2023-01-08T14:36:22;5.10;99.90
12841;DHT22;6487;48.626;12.486;2023-01-08T14:38:51;5.20;99.90
12841;DHT22;6487;48.626;12.486;2023-01-08T14:41:25;5.20;99.90
12841;DHT22;6487;48.626;12.486;2023-01-08T14:44:19;5.00;99.90
12841;DHT22;6487;48.626;12.486;2023-01-08T14:47:02;5.10;99.90
12841;DHT22;6487;48.626;12.486;2023-01-08T14:49:32;5.20;99.90
12841;DHT22;6487;48.626;12.486;2023-01-08T14:52:09;5.30;99.90
12841;DHT22;6487;48.626;12.486;2023-01-08T14:54:40;5.30;99.90
12841;DHT22;6487;48.626;12.486;2023-01-08T14:57:13;5.40;99.90
12841;DHT22;6487;48.626;12.486;2023-01-08T14:59:47;5.40;99.90
12841;DHT22;6487;48.626;12.486;2023-01-08T15:02:25;5.50;99.90
12841;DHT22;6487;48.626;12.486;2023-01-08T15:05:11;5.40;99.90
12841;DHT22;6487;48.626;12.486;2023-01-08T15:07:42;5.40;99.90
12841;DHT22;6487;48.626;12.486;2023-01-08T15:10:38;5.30;99.90
12841;DHT22;6487;48.626;12.486;2023-01-08T15:13:21;5.30;99.90
12841;DHT22;6487;48.626;12.486;2023-01-08T15:15:55;5.30;99.90
12841;DHT22;6487;48.626;12.486;2023-01-08T15:18:25;5.30;99.90
12841;DHT22;6487;48.626;12.486;2023-01-08T15:20:54;5.30;99.90
12841;DHT22;6487;48.626;12.486;2023-01-08T15:23:31;5.30;99.90
12841;DHT22;6487;48.626;12.486;2023-01-08T15:26:02;5.20;99.90
12841;DHT22;6487;48.626;12.486;2023-01-08T15:28:32;5.30;99.90
12841;DHT22;6487;48.626;12.486;2023-01-08T15:31:00;5.30;99.90
12841;DHT22;6487;48.626;12.486;2023-01-08T15:33:29;5.20;99.90
12841;DHT22;6487;48.626;12.486;2023-01-08T15:35:57;5.20;99.90
12841;DHT22;6487;48.626;12.486;2023-01-08T15:38:25;5.30;99.90
12841;DHT22;6487;48.626;12.486;2023-01-08T15:40:54;5.30;99.90
12841;DHT22;6487;48.626;12.486;2023-01-08T15:43:22;5.30;99.90
12841;DHT22;6487;48.626;12.486;2023-01-08T15:45:51;5.20;99.90
12841;DHT22;6487;48.626;12.486;2023-01-08T15:48:19;5.20;99.90
12841;DHT22;6487;48.626;12.486;2023-01-08T15:50:47;5.20;99.90
12841;DHT22;6487;48.626;12.486;2023-01-08T15:53:17;5.10;99.90
12841;DHT22;6487;48.626;12.486;2023-01-08T15:55:48;5.20;99.90
12841;DHT22;6487;48.626;12.486;2023-01-08T15:58:19;5.20;99.90
12841;DHT22;6487;48.626;12.486;2023-01-08T16:00:47;5.20;99.90
12841;DHT22;6487;48.626;12.486;2023-01-08T16:03:17;5.30;99.90
12841;DHT22;6487;48.626;12.486;2023-01-08T16:05:46;5.20;99.90
12841;DHT22;6487;48.626;12.486;2023-01-08T16:08:15;5.20;99.90
12841;DHT22;6487;48.626;12.486;2023-01-08T16:10:43;5.20;99.90
12841;DHT22;6487;48.626;12.486;2023-01-08T16:13:11;5.20;99.90
12841;DHT22;6487;48.626;12.486;2023-01-08T16:15:39;5.10;99.90
12841;DHT22;6487;48.626;12.486;2023-01-08T16:18:08;5.10;99.90
12841;DHT22;6487;48.626;12.486;2023-01-08T16:20:38;5.20;99.90
12841;DHT22;6487;48.626;12.486;2023-01-08T16:23:06;5.20;99.90